PAGK

Details ICAO PAGK (GKN)
Name GULKANA
Region USA (Alaska)
Timezone America/Anchorage (UTC-8.0)
Plans Departing 15
Arriving 6
Stats Elevation 1,580 ft / 482 m (AMSL)
Location 62.154953° -145.454333°
Runways 1
Magnetic Variation 17.669° E
Sunrise 2018-05-21 12:31:47 UTC / 2018-05-21 04:31:47 Local
Sunset 2018-05-22 06:47:57 UTC / 2018-05-21 22:47:57 Local
Advertisement - Login to hide

Runways

ID Width Length Bearing (true) Bearing (mag) Surface Threshold Offset Overrun Length
14 100 ft / 30 m 4,989 ft / 1,521 m 171.05° 153.38° Asphalt 0 ft / 0 m 0 ft / 0 m
32 100 ft / 30 m 4,989 ft / 1,521 m 351.05° 333.38° Asphalt 0 ft / 0 m 0 ft / 0 m

Map

Weather


0- 5 10 15 20 25 30 35+ Temperature / ° C

Clouds and Precipitation
Forecast for 2018-05-22 06:00 UTC. Updated 3 hours ago

Ground ~20,000 ft ~40,000 ft Winds

METAR

PAGK 220753Z AUTO 00000KT 10SM BKN060 OVC080 07/06 A2952 RMK AO2 SLP002 T00720056 TSNO $

TAF

TAF PAGK 220538Z 2206/2306 17005KT P6SM SCT060 BKN100 TEMPO 2206/2209 -SHRA BKN060 FM222200 17011KT P6SM SCT050 BKN100

Frequencies

Recorded 134.85 MHz ASOS
Unicom 122.90 MHz CTAF
Warning: Do not use this data for real-world aviation or navigation. No guarantee of current accuracy is given.